sensor_id;sensor_type;location;lat;lon;timestamp;noise_LAeq;noise_LA_min;noise_LA_max;noise_LA01;noise_LA95
50333;Laerm;36239;48.132;-1.210;2023-02-15T00:00:53;39.45;35.36;45.69;;
50333;Laerm;36239;48.132;-1.210;2023-02-15T00:03:22;38.91;35.36;41.82;;
50333;Laerm;36239;48.132;-1.210;2023-02-15T00:05:48;39.16;36.10;43.44;;
50333;Laerm;36239;48.132;-1.210;2023-02-15T00:08:14;38.51;34.69;42.03;;
50333;Laerm;36239;48.132;-1.210;2023-02-15T00:10:40;38.91;35.04;42.65;;
50333;Laerm;36239;48.132;-1.210;2023-02-15T00:13:06;40.02;35.04;53.07;;
50333;Laerm;36239;48.132;-1.210;2023-02-15T00:15:32;39.00;35.04;43.58;;
50333;Laerm;36239;48.132;-1.210;2023-02-15T00:17:58;39.16;33.90;42.98;;
50333;Laerm;36239;48.132;-1.210;2023-02-15T00:20:24;40.24;34.69;46.82;;
50333;Laerm;36239;48.132;-1.210;2023-02-15T00:22:50;39.19;35.36;42.16;;
50333;Laerm;36239;48.132;-1.210;2023-02-15T00:25:16;38.78;35.04;42.06;;
50333;Laerm;36239;48.132;-1.210;2023-02-15T00:27:42;39.39;35.94;43.77;;
50333;Laerm;36239;48.132;-1.210;2023-02-15T00:30:08;39.04;32.93;42.93;;
50333;Laerm;36239;48.132;-1.210;2023-02-15T00:32:34;38.38;34.69;42.22;;
50333;Laerm;36239;48.132;-1.210;2023-02-15T00:35:00;38.43;33.90;41.68;;
50333;Laerm;36239;48.132;-1.210;2023-02-15T00:37:26;38.35;34.69;41.96;;
50333;Laerm;36239;48.132;-1.210;2023-02-15T00:39:52;38.40;34.31;42.03;;
50333;Laerm;36239;48.132;-1.210;2023-02-15T00:42:18;38.47;33.90;41.68;;
50333;Laerm;36239;48.132;-1.210;2023-02-15T00:44:44;40.78;35.04;49.06;;
50333;Laerm;36239;48.132;-1.210;2023-02-15T00:47:10;38.62;34.69;44.43;;
50333;Laerm;36239;48.132;-1.210;2023-02-15T00:49:36;38.65;34.31;42.53;;
50333;Laerm;36239;48.132;-1.210;2023-02-15T00:52:02;38.50;34.69;41.82;;
50333;Laerm;36239;48.132;-1.210;2023-02-15T00:54:28;38.56;34.69;43.19;;
50333;Laerm;36239;48.132;-1.210;2023-02-15T00:56:54;38.66;34.69;42.16;;
50333;Laerm;36239;48.132;-1.210;2023-02-15T00:59:20;38.51;34.31;43.19;;
50333;Laerm;36239;48.132;-1.210;2023-02-15T01:01:46;39.05;35.04;42.71;;
50333;Laerm;36239;48.132;-1.210;2023-02-15T01:04:12;42.03;36.69;43.90;;
50333;Laerm;36239;48.132;-1.210;2023-02-15T01:06:38;42.33;36.69;53.97;;
50333;Laerm;36239;48.132;-1.210;2023-02-15T01:09:04;42.59;36.45;55.21;;
50333;Laerm;36239;48.132;-1.210;2023-02-15T01:11:30;40.39;36.91;42.88;;
50333;Laerm;36239;48.132;-1.210;2023-02-15T01:13:57;40.89;36.91;43.81;;
50333;Laerm;36239;48.132;-1.210;2023-02-15T01:16:24;41.64;36.91;44.07;;
50333;Laerm;36239;48.132;-1.210;2023-02-15T01:18:50;42.21;38.37;45.20;;
50333;Laerm;36239;48.132;-1.210;2023-02-15T01:21:18;42.91;39.08;44.83;;
50333;Laerm;36239;48.132;-1.210;2023-02-15T01:23:45;42.55;39.34;44.76;;
50333;Laerm;36239;48.132;-1.210;2023-02-15T01:26:11;41.26;37.88;43.90;;
50333;Laerm;36239;48.132;-1.210;2023-02-15T01:28:38;40.38;36.20;44.76;;
50333;Laerm;36239;48.132;-1.210;2023-02-15T01:31:07;40.10;35.66;45.30;;
50333;Laerm;36239;48.132;-1.210;2023-02-15T01:33:34;42.10;38.05;46.87;;
50333;Laerm;36239;48.132;-1.210;2023-02-15T01:36:00;42.18;38.52;44.90;;
50333;Laerm;36239;48.132;-1.210;2023-02-15T01:38:26;40.84;35.36;44.15;;
50333;Laerm;36239;48.132;-1.210;2023-02-15T01:40:53;40.75;36.45;49.78;;
50333;Laerm;36239;48.132;-1.210;2023-02-15T01:43:20;39.86;36.34;45.17;;
50333;Laerm;36239;48.132;-1.210;2023-02-15T01:45:47;39.79;35.86;45.30;;
50333;Laerm;36239;48.132;-1.210;2023-02-15T01:48:21;39.80;35.94;42.53;;
50333;Laerm;36239;48.132;-1.210;2023-02-15T01:50:52;45.36;35.94;80.25;;
50333;Laerm;36239;48.132;-1.210;2023-02-15T01:55:50;39.43;36.20;44.15;;
50333;Laerm;36239;48.132;-1.210;2023-02-15T01:58:18;39.68;35.94;42.53;;
50333;Laerm;36239;48.132;-1.210;2023-02-15T02:00:44;39.91;36.20;48.91;;
50333;Laerm;36239;48.132;-1.210;2023-02-15T02:03:11;41.01;36.91;47.26;;
50333;Laerm;36239;48.132;-1.210;2023-02-15T02:05:37;42.04;37.52;51.84;;
50333;Laerm;36239;48.132;-1.210;2023-02-15T02:08:04;40.05;37.12;43.04;;
50333;Laerm;36239;48.132;-1.210;2023-02-15T02:10:32;40.36;36.91;43.58;;
50333;Laerm;36239;48.132;-1.210;2023-02-15T02:12:58;40.40;37.12;49.56;;
50333;Laerm;36239;48.132;-1.210;2023-02-15T02:15:34;39.73;35.94;44.51;;
50333;Laerm;36239;48.132;-1.210;2023-02-15T02:31:00;41.20;35.94;51.42;;
50333;Laerm;36239;48.132;-1.210;2023-02-15T02:33:34;40.54;36.45;45.91;;
50333;Laerm;36239;48.132;-1.210;2023-02-15T02:41:32;40.25;35.94;46.15;;
50333;Laerm;36239;48.132;-1.210;2023-02-15T02:49:12;41.12;35.66;49.18;;
50333;Laerm;36239;48.132;-1.210;2023-02-15T02:51:38;39.61;35.94;43.24;;
50333;Laerm;36239;48.132;-1.210;2023-02-15T02:54:05;39.52;35.66;43.44;;
50333;Laerm;36239;48.132;-1.210;2023-02-15T02:59:32;39.34;35.66;42.71;;
50333;Laerm;36239;48.132;-1.210;2023-02-15T03:02:10;39.11;35.66;42.03;;
50333;Laerm;36239;48.132;-1.210;2023-02-15T03:04:40;39.15;35.31;42.65;;
50333;Laerm;36239;48.132;-1.210;2023-02-15T03:07:09;39.93;36.20;43.94;;
50333;Laerm;36239;48.132;-1.210;2023-02-15T03:09:41;40.54;36.45;46.45;;
50333;Laerm;36239;48.132;-1.210;2023-02-15T03:12:09;42.88;37.32;52.77;;
50333;Laerm;36239;48.132;-1.210;2023-02-15T03:14:36;39.88;36.69;43.24;;
50333;Laerm;36239;48.132;-1.210;2023-02-15T03:17:04;40.20;36.20;48.91;;
50333;Laerm;36239;48.132;-1.210;2023-02-15T03:19:33;39.48;35.94;42.47;;
50333;Laerm;36239;48.132;-1.210;2023-02-15T03:22:08;39.51;35.94;42.53;;
50333;Laerm;36239;48.132;-1.210;2023-02-15T03:24:51;41.14;36.45;48.10;;
50333;Laerm;36239;48.132;-1.210;2023-02-15T03:27:22;41.22;35.94;47.98;;
50333;Laerm;36239;48.132;-1.210;2023-02-15T03:29:53;41.07;36.91;47.02;;
50333;Laerm;36239;48.132;-1.210;2023-02-15T03:32:20;42.57;37.52;48.58;;
50333;Laerm;36239;48.132;-1.210;2023-02-15T03:34:47;44.46;37.88;52.27;;
50333;Laerm;36239;48.132;-1.210;2023-02-15T03:37:36;45.12;37.70;55.12;;
50333;Laerm;36239;48.132;-1.210;2023-02-15T03:40:00;42.03;36.91;50.39;;
50333;Laerm;36239;48.132;-1.210;2023-02-15T03:42:54;44.30;37.88;54.76;;
50333;Laerm;36239;48.132;-1.210;2023-02-15T03:45:25;41.97;35.66;51.35;;
50333;Laerm;36239;48.132;-1.210;2023-02-15T03:47:53;41.39;35.36;50.92;;
50333;Laerm;36239;48.132;-1.210;2023-02-15T03:50:24;42.12;37.12;50.68;;
50333;Laerm;36239;48.132;-1.210;2023-02-15T03:53:12;40.30;35.36;48.49;;
50333;Laerm;36239;48.132;-1.210;2023-02-15T03:55:39;40.68;35.36;48.84;;
50333;Laerm;36239;48.132;-1.210;2023-02-15T03:58:05;40.83;35.94;50.98;;
50333;Laerm;36239;48.132;-1.210;2023-02-15T04:03:43;41.54;35.94;48.37;;
50333;Laerm;36239;48.132;-1.210;2023-02-15T04:06:10;39.65;35.36;43.68;;
50333;Laerm;36239;48.132;-1.210;2023-02-15T04:08:36;41.78;36.20;50.29;;
50333;Laerm;36239;48.132;-1.210;2023-02-15T04:11:20;41.08;36.69;47.81;;
50333;Laerm;36239;48.132;-1.210;2023-02-15T04:13:46;42.30;37.70;52.06;;
50333;Laerm;36239;48.132;-1.210;2023-02-15T04:16:12;42.16;37.70;48.40;;
50333;Laerm;36239;48.132;-1.210;2023-02-15T04:18:42;42.13;36.45;48.51;;
50333;Laerm;36239;48.132;-1.210;2023-02-15T04:21:28;41.23;36.91;45.54;;
50333;Laerm;36239;48.132;-1.210;2023-02-15T04:24:13;41.63;37.52;46.89;;
50333;Laerm;36239;48.132;-1.210;2023-02-15T04:26:58;41.59;37.52;48.91;;
50333;Laerm;36239;48.132;-1.210;2023-02-15T04:29:24;41.70;37.70;47.32;;
50333;Laerm;36239;48.132;-1.210;2023-02-15T04:31:51;42.22;38.05;49.10;;
50333;Laerm;36239;48.132;-1.210;2023-02-15T04:34:17;42.53;37.32;48.21;;
50333;Laerm;36239;48.132;-1.210;2023-02-15T04:36:43;41.93;37.70;47.98;;
50333;Laerm;36239;48.132;-1.210;2023-02-15T04:39:12;43.00;38.21;50.10;;
50333;Laerm;36239;48.132;-1.210;2023-02-15T04:41:38;43.61;38.37;50.37;;
50333;Laerm;36239;48.132;-1.210;2023-02-15T04:44:04;42.71;37.52;59.06;;
50333;Laerm;36239;48.132;-1.210;2023-02-15T04:46:30;48.91;38.67;65.98;;
50333;Laerm;36239;48.132;-1.210;2023-02-15T04:48:56;42.56;37.52;49.90;;
50333;Laerm;36239;48.132;-1.210;2023-02-15T04:51:22;42.39;38.67;48.10;;
50333;Laerm;36239;48.132;-1.210;2023-02-15T04:53:49;42.09;37.52;48.25;;
50333;Laerm;36239;48.132;-1.210;2023-02-15T04:56:15;41.77;36.45;50.45;;
50333;Laerm;36239;48.132;-1.210;2023-02-15T04:58:41;43.63;38.37;51.67;;
50333;Laerm;36239;48.132;-1.210;2023-02-15T05:01:07;42.18;37.32;49.33;;
50333;Laerm;36239;48.132;-1.210;2023-02-15T05:03:33;42.17;37.32;50.64;;
50333;Laerm;36239;48.132;-1.210;2023-02-15T05:06:00;42.46;38.05;48.91;;
50333;Laerm;36239;48.132;-1.210;2023-02-15T05:08:25;41.33;37.32;45.27;;
50333;Laerm;36239;48.132;-1.210;2023-02-15T05:10:52;42.45;37.70;48.60;;
50333;Laerm;36239;48.132;-1.210;2023-02-15T05:13:18;42.33;37.70;48.32;;
50333;Laerm;36239;48.132;-1.210;2023-02-15T05:15:53;43.47;38.95;50.00;;
50333;Laerm;36239;48.132;-1.210;2023-02-15T05:18:19;42.53;37.70;49.90;;
50333;Laerm;36239;48.132;-1.210;2023-02-15T05:20:46;42.24;37.70;47.22;;
50333;Laerm;36239;48.132;-1.210;2023-02-15T05:23:12;42.00;37.32;51.14;;
50333;Laerm;36239;48.132;-1.210;2023-02-15T05:25:38;42.07;37.52;52.22;;
50333;Laerm;36239;48.132;-1.210;2023-02-15T05:28:24;42.83;38.05;52.30;;
50333;Laerm;36239;48.132;-1.210;2023-02-15T05:31:00;42.20;37.70;51.54;;
50333;Laerm;36239;48.132;-1.210;2023-02-15T05:33:27;43.66;38.81;52.08;;
50333;Laerm;36239;48.132;-1.210;2023-02-15T05:35:53;49.27;37.70;69.81;;
50333;Laerm;36239;48.132;-1.210;2023-02-15T05:38:19;43.72;37.52;51.71;;
50333;Laerm;36239;48.132;-1.210;2023-02-15T05:40:45;42.71;38.67;52.31;;
50333;Laerm;36239;48.132;-1.210;2023-02-15T05:43:11;42.32;38.81;51.91;;
50333;Laerm;36239;48.132;-1.210;2023-02-15T05:45:37;43.23;37.70;51.84;;
50333;Laerm;36239;48.132;-1.210;2023-02-15T05:48:03;43.43;38.95;49.10;;
50333;Laerm;36239;48.132;-1.210;2023-02-15T05:50:29;42.62;38.21;58.23;;
50333;Laerm;36239;48.132;-1.210;2023-02-15T05:52:55;42.71;39.08;48.51;;
50333;Laerm;36239;48.132;-1.210;2023-02-15T05:55:21;44.41;40.71;53.21;;
50333;Laerm;36239;48.132;-1.210;2023-02-15T05:57:48;43.28;39.46;49.60;;
50333;Laerm;36239;48.132;-1.210;2023-02-15T06:00:14;43.44;39.46;53.57;;
50333;Laerm;36239;48.132;-1.210;2023-02-15T06:02:40;45.16;39.81;62.33;;
50333;Laerm;36239;48.132;-1.210;2023-02-15T06:05:07;45.51;39.58;63.21;;
50333;Laerm;36239;48.132;-1.210;2023-02-15T06:07:33;51.49;38.95;67.15;;
50333;Laerm;36239;48.132;-1.210;2023-02-15T06:09:59;50.53;40.33;64.26;;
50333;Laerm;36239;48.132;-1.210;2023-02-15T06:12:25;50.55;38.95;66.09;;
50333;Laerm;36239;48.132;-1.210;2023-02-15T06:14:51;50.97;39.70;63.89;;
50333;Laerm;36239;48.132;-1.210;2023-02-15T06:17:17;50.85;41.06;66.86;;
50333;Laerm;36239;48.132;-1.210;2023-02-15T06:19:43;48.06;41.14;64.23;;
50333;Laerm;36239;48.132;-1.210;2023-02-15T06:22:09;45.40;39.34;55.34;;
50333;Laerm;36239;48.132;-1.210;2023-02-15T06:24:35;45.61;39.70;54.48;;
50333;Laerm;36239;48.132;-1.210;2023-02-15T06:27:01;45.95;40.98;56.02;;
50333;Laerm;36239;48.132;-1.210;2023-02-15T06:29:27;45.04;40.13;55.89;;
50333;Laerm;36239;48.132;-1.210;2023-02-15T06:31:53;45.67;40.43;55.55;;
50333;Laerm;36239;48.132;-1.210;2023-02-15T06:34:19;44.30;40.43;56.62;;
50333;Laerm;36239;48.132;-1.210;2023-02-15T06:36:45;44.13;40.71;60.09;;
50333;Laerm;36239;48.132;-1.210;2023-02-15T06:39:11;43.79;40.62;50.97;;
50333;Laerm;36239;48.132;-1.210;2023-02-15T06:41:37;43.98;41.14;52.31;;
50333;Laerm;36239;48.132;-1.210;2023-02-15T06:44:03;44.66;41.89;52.79;;
50333;Laerm;36239;48.132;-1.210;2023-02-15T06:46:29;49.71;41.22;70.23;;
50333;Laerm;36239;48.132;-1.210;2023-02-15T06:48:55;44.49;41.75;54.93;;
50333;Laerm;36239;48.132;-1.210;2023-02-15T06:51:21;44.68;40.80;59.00;;
50333;Laerm;36239;48.132;-1.210;2023-02-15T06:53:47;47.32;40.71;59.44;;
50333;Laerm;36239;48.132;-1.210;2023-02-15T06:56:13;46.33;41.30;60.21;;
50333;Laerm;36239;48.132;-1.210;2023-02-15T06:58:39;51.14;41.61;68.03;;
50333;Laerm;36239;48.132;-1.210;2023-02-15T07:01:06;50.79;41.14;68.73;;
50333;Laerm;36239;48.132;-1.210;2023-02-15T07:03:32;46.07;41.75;60.27;;
50333;Laerm;36239;48.132;-1.210;2023-02-15T07:05:59;48.90;42.65;62.50;;
50333;Laerm;36239;48.132;-1.210;2023-02-15T07:08:25;49.16;41.94;62.13;;
50333;Laerm;36239;48.132;-1.210;2023-02-15T07:10:52;47.88;42.35;60.42;;
50333;Laerm;36239;48.132;-1.210;2023-02-15T07:13:18;49.26;42.76;66.22;;
50333;Laerm;36239;48.132;-1.210;2023-02-15T07:15:45;50.67;42.53;63.70;;
50333;Laerm;36239;48.132;-1.210;2023-02-15T07:18:11;55.07;42.22;72.80;;
50333;Laerm;36239;48.132;-1.210;2023-02-15T07:20:37;55.68;43.24;71.99;;
50333;Laerm;36239;48.132;-1.210;2023-02-15T07:23:04;50.86;43.09;75.25;;
50333;Laerm;36239;48.132;-1.210;2023-02-15T07:25:30;48.63;42.16;74.72;;
50333;Laerm;36239;48.132;-1.210;2023-02-15T07:27:57;47.44;42.58;63.56;;
50333;Laerm;36239;48.132;-1.210;2023-02-15T07:30:23;48.20;42.71;71.16;;
50333;Laerm;36239;48.132;-1.210;2023-02-15T07:32:49;47.61;42.65;62.48;;
50333;Laerm;36239;48.132;-1.210;2023-02-15T07:35:34;55.13;43.19;78.76;;
50333;Laerm;36239;48.132;-1.210;2023-02-15T07:38:00;52.02;43.81;72.27;;
50333;Laerm;36239;48.132;-1.210;2023-02-15T07:40:26;51.93;43.58;77.40;;
50333;Laerm;36239;48.132;-1.210;2023-02-15T07:42:52;57.51;43.49;88.54;;
50333;Laerm;36239;48.132;-1.210;2023-02-15T07:45:20;49.64;42.22;74.39;;
50333;Laerm;36239;48.132;-1.210;2023-02-15T07:47:46;49.69;40.98;68.62;;
50333;Laerm;36239;48.132;-1.210;2023-02-15T07:50:13;45.70;41.68;58.63;;
50333;Laerm;36239;48.132;-1.210;2023-02-15T07:52:39;46.22;42.16;58.47;;
50333;Laerm;36239;48.132;-1.210;2023-02-15T07:55:05;46.52;42.09;56.21;;
50333;Laerm;36239;48.132;-1.210;2023-02-15T07:57:31;47.52;42.98;67.01;;
50333;Laerm;36239;48.132;-1.210;2023-02-15T07:59:57;52.18;42.59;84.82;;
50333;Laerm;36239;48.132;-1.210;2023-02-15T08:02:23;49.26;42.41;63.45;;
50333;Laerm;36239;48.132;-1.210;2023-02-15T08:04:49;50.30;41.96;66.33;;
50333;Laerm;36239;48.132;-1.210;2023-02-15T08:07:15;50.21;42.03;69.65;;
50333;Laerm;36239;48.132;-1.210;2023-02-15T08:09:41;47.71;41.46;65.74;;
50333;Laerm;36239;48.132;-1.210;2023-02-15T08:12:07;51.21;42.71;68.76;;
50333;Laerm;36239;48.132;-1.210;2023-02-15T08:14:33;51.17;42.47;61.52;;
50333;Laerm;36239;48.132;-1.210;2023-02-15T08:16:59;49.63;41.68;59.90;;
50333;Laerm;36239;48.132;-1.210;2023-02-15T08:19:29;51.51;42.35;70.96;;
50333;Laerm;36239;48.132;-1.210;2023-02-15T08:21:56;50.19;42.22;60.61;;
50333;Laerm;36239;48.132;-1.210;2023-02-15T08:24:23;57.16;42.41;72.98;;
50333;Laerm;36239;48.132;-1.210;2023-02-15T08:26:50;63.02;42.82;89.41;;
50333;Laerm;36239;48.132;-1.210;2023-02-15T08:29:18;53.15;42.76;75.88;;
50333;Laerm;36239;48.132;-1.210;2023-02-15T08:31:44;55.98;42.98;83.82;;
50333;Laerm;36239;48.132;-1.210;2023-02-15T08:34:11;58.91;41.82;82.27;;
50333;Laerm;36239;48.132;-1.210;2023-02-15T08:36:38;53.26;42.88;74.93;;
50333;Laerm;36239;48.132;-1.210;2023-02-15T08:39:05;53.60;43.68;71.99;;
50333;Laerm;36239;48.132;-1.210;2023-02-15T08:41:32;50.14;42.82;60.05;;
50333;Laerm;36239;48.132;-1.210;2023-02-15T08:44:00;49.10;41.96;66.72;;
50333;Laerm;36239;48.132;-1.210;2023-02-15T08:46:28;50.88;41.22;67.11;;
50333;Laerm;36239;48.132;-1.210;2023-02-15T08:48:54;50.16;41.46;72.88;;
50333;Laerm;36239;48.132;-1.210;2023-02-15T08:51:21;50.11;41.48;69.97;;
50333;Laerm;36239;48.132;-1.210;2023-02-15T08:53:48;54.92;41.89;72.46;;
50333;Laerm;36239;48.132;-1.210;2023-02-15T08:56:15;46.95;41.30;62.47;;
50333;Laerm;36239;48.132;-1.210;2023-02-15T08:58:41;47.43;41.75;66.27;;
50333;Laerm;36239;48.132;-1.210;2023-02-15T09:01:07;50.15;41.46;65.46;;
50333;Laerm;36239;48.132;-1.210;2023-02-15T09:03:33;48.08;41.22;65.66;;
50333;Laerm;36239;48.132;-1.210;2023-02-15T09:06:00;60.57;41.75;92.97;;
50333;Laerm;36239;48.132;-1.210;2023-02-15T09:08:27;53.00;42.47;80.11;;
50333;Laerm;36239;48.132;-1.210;2023-02-15T09:10:53;49.25;41.53;68.85;;
50333;Laerm;36239;48.132;-1.210;2023-02-15T09:13:20;51.58;42.98;74.18;;
50333;Laerm;36239;48.132;-1.210;2023-02-15T09:15:46;49.40;40.89;71.31;;
50333;Laerm;36239;48.132;-1.210;2023-02-15T09:18:12;53.22;42.09;67.58;;
50333;Laerm;36239;48.132;-1.210;2023-02-15T09:20:43;49.57;41.82;66.69;;
50333;Laerm;36239;48.132;-1.210;2023-02-15T09:23:10;56.49;42.09;77.22;;
50333;Laerm;36239;48.132;-1.210;2023-02-15T09:25:36;47.74;41.61;61.08;;
50333;Laerm;36239;48.132;-1.210;2023-02-15T09:28:02;49.55;42.03;68.20;;
50333;Laerm;36239;48.132;-1.210;2023-02-15T09:30:28;49.68;40.89;62.62;;
50333;Laerm;36239;48.132;-1.210;2023-02-15T09:32:54;48.88;40.98;74.64;;
50333;Laerm;36239;48.132;-1.210;2023-02-15T09:35:20;47.32;40.80;63.78;;
50333;Laerm;36239;48.132;-1.210;2023-02-15T09:37:46;50.43;40.80;70.39;;
50333;Laerm;36239;48.132;-1.210;2023-02-15T09:40:12;53.88;40.13;70.64;;
50333;Laerm;36239;48.132;-1.210;2023-02-15T09:48:21;47.51;40.89;72.67;;
50333;Laerm;36239;48.132;-1.210;2023-02-15T10:01:13;46.86;41.14;64.86;;
50333;Laerm;36239;48.132;-1.210;2023-02-15T10:06:35;49.97;39.58;75.59;;
50333;Laerm;36239;48.132;-1.210;2023-02-15T10:22:36;46.87;38.95;66.68;;
50333;Laerm;36239;48.132;-1.210;2023-02-15T10:25:14;46.81;41.61;65.77;;
50333;Laerm;36239;48.132;-1.210;2023-02-15T10:27:46;46.40;39.21;64.34;;
50333;Laerm;36239;48.132;-1.210;2023-02-15T10:30:19;46.88;40.23;62.94;;
50333;Laerm;36239;48.132;-1.210;2023-02-15T10:38:00;46.82;38.21;60.63;;
50333;Laerm;36239;48.132;-1.210;2023-02-15T10:48:22;53.72;40.23;70.85;;
50333;Laerm;36239;48.132;-1.210;2023-02-15T10:50:52;48.67;39.08;78.81;;
50333;Laerm;36239;48.132;-1.210;2023-02-15T11:06:12;65.44;36.91;98.30;;
50333;Laerm;36239;48.132;-1.210;2023-02-15T11:08:41;42.84;36.45;66.16;;
50333;Laerm;36239;48.132;-1.210;2023-02-15T11:11:10;45.19;36.69;70.41;;
50333;Laerm;36239;48.132;-1.210;2023-02-15T11:13:39;54.69;35.94;79.84;;
50333;Laerm;36239;48.132;-1.210;2023-02-15T11:16:14;40.90;35.94;59.10;;
50333;Laerm;36239;48.132;-1.210;2023-02-15T11:18:43;41.61;35.94;66.67;;
50333;Laerm;36239;48.132;-1.210;2023-02-15T11:21:13;48.55;35.36;73.94;;
50333;Laerm;36239;48.132;-1.210;2023-02-15T11:23:44;47.16;35.94;73.79;;
50333;Laerm;36239;48.132;-1.210;2023-02-15T11:26:12;57.43;37.52;75.73;;
50333;Laerm;36239;48.132;-1.210;2023-02-15T11:28:49;42.50;35.36;62.89;;
50333;Laerm;36239;48.132;-1.210;2023-02-15T11:31:18;46.36;36.20;71.60;;
50333;Laerm;36239;48.132;-1.210;2023-02-15T11:33:46;42.71;35.04;64.24;;
50333;Laerm;36239;48.132;-1.210;2023-02-15T11:36:15;42.28;35.94;67.64;;
50333;Laerm;36239;48.132;-1.210;2023-02-15T11:38:42;42.39;35.66;62.85;;
50333;Laerm;36239;48.132;-1.210;2023-02-15T11:41:10;44.33;35.36;56.70;;
50333;Laerm;36239;48.132;-1.210;2023-02-15T11:43:49;40.43;35.66;58.59;;
50333;Laerm;36239;48.132;-1.210;2023-02-15T11:46:18;39.39;35.04;47.44;;
50333;Laerm;36239;48.132;-1.210;2023-02-15T11:48:46;43.14;35.36;72.70;;
50333;Laerm;36239;48.132;-1.210;2023-02-15T11:51:14;39.45;35.36;56.36;;
50333;Laerm;36239;48.132;-1.210;2023-02-15T11:53:41;40.24;33.44;60.51;;
50333;Laerm;36239;48.132;-1.210;2023-02-15T11:56:13;39.09;33.44;44.80;;
50333;Laerm;36239;48.132;-1.210;2023-02-15T11:58:44;38.97;33.44;52.21;;
50333;Laerm;36239;48.132;-1.210;2023-02-15T12:01:14;42.82;34.69;60.90;;
50333;Laerm;36239;48.132;-1.210;2023-02-15T12:03:51;43.94;34.31;62.49;;
50333;Laerm;36239;48.132;-1.210;2023-02-15T12:06:23;41.16;34.69;56.69;;
50333;Laerm;36239;48.132;-1.210;2023-02-15T12:09:06;39.69;35.04;55.04;;
50333;Laerm;36239;48.132;-1.210;2023-02-15T12:11:38;48.30;34.69;67.11;;
50333;Laerm;36239;48.132;-1.210;2023-02-15T12:14:05;46.45;35.04;71.18;;
50333;Laerm;36239;48.132;-1.210;2023-02-15T12:16:50;52.12;35.04;82.15;;
50333;Laerm;36239;48.132;-1.210;2023-02-15T12:21:50;49.82;34.69;81.18;;
50333;Laerm;36239;48.132;-1.210;2023-02-15T12:26:44;39.10;35.04;53.23;;
50333;Laerm;36239;48.132;-1.210;2023-02-15T12:29:15;55.61;34.69;72.17;;
50333;Laerm;36239;48.132;-1.210;2023-02-15T12:31:45;48.87;34.31;72.23;;
50333;Laerm;36239;48.132;-1.210;2023-02-15T12:34:21;46.80;35.66;73.74;;
50333;Laerm;36239;48.132;-1.210;2023-02-15T12:36:49;44.98;38.81;62.64;;
50333;Laerm;36239;48.132;-1.210;2023-02-15T12:39:21;50.45;38.05;65.71;;
50333;Laerm;36239;48.132;-1.210;2023-02-15T12:46:56;41.61;35.66;57.36;;
50333;Laerm;36239;48.132;-1.210;2023-02-15T12:49:23;48.92;36.77;67.29;;
50333;Laerm;36239;48.132;-1.210;2023-02-15T12:51:54;47.90;37.12;58.84;;
50333;Laerm;36239;48.132;-1.210;2023-02-15T12:56:46;49.88;38.37;71.47;;
50333;Laerm;36239;48.132;-1.210;2023-02-15T12:59:13;58.21;36.69;83.79;;
50333;Laerm;36239;48.132;-1.210;2023-02-15T13:01:40;50.36;37.32;73.45;;
50333;Laerm;36239;48.132;-1.210;2023-02-15T13:04:26;58.08;38.05;76.23;;
50333;Laerm;36239;48.132;-1.210;2023-02-15T13:06:54;48.30;37.52;69.55;;
50333;Laerm;36239;48.132;-1.210;2023-02-15T13:14:43;54.87;38.81;79.40;;
50333;Laerm;36239;48.132;-1.210;2023-02-15T13:17:10;51.79;38.37;68.37;;
50333;Laerm;36239;48.132;-1.210;2023-02-15T13:19:47;44.06;38.37;63.15;;
50333;Laerm;36239;48.132;-1.210;2023-02-15T13:22:15;45.78;40.23;62.21;;
50333;Laerm;36239;48.132;-1.210;2023-02-15T13:24:50;54.36;38.37;68.18;;
50333;Laerm;36239;48.132;-1.210;2023-02-15T13:27:21;52.57;38.02;63.33;;
50333;Laerm;36239;48.132;-1.210;2023-02-15T13:29:49;54.71;37.88;70.83;;
50333;Laerm;36239;48.132;-1.210;2023-02-15T13:34:45;49.45;40.33;68.91;;
50333;Laerm;36239;48.132;-1.210;2023-02-15T13:37:15;56.09;38.21;70.25;;
50333;Laerm;36239;48.132;-1.210;2023-02-15T13:42:44;52.30;37.32;70.94;;
50333;Laerm;36239;48.132;-1.210;2023-02-15T13:50:21;52.08;39.08;77.01;;
50333;Laerm;36239;48.132;-1.210;2023-02-15T13:53:09;51.69;39.34;63.52;;
50333;Laerm;36239;48.132;-1.210;2023-02-15T13:55:51;50.14;39.21;64.79;;
50333;Laerm;36239;48.132;-1.210;2023-02-15T14:03:39;45.10;39.08;67.75;;
50333;Laerm;36239;48.132;-1.210;2023-02-15T14:06:20;53.71;40.88;73.57;;
50333;Laerm;36239;48.132;-1.210;2023-02-15T14:08:54;44.64;38.21;62.53;;
50333;Laerm;36239;48.132;-1.210;2023-02-15T14:19:18;43.92;38.67;59.41;;
50333;Laerm;36239;48.132;-1.210;2023-02-15T14:21:48;43.94;37.70;65.46;;
50333;Laerm;36239;48.132;-1.210;2023-02-15T14:24:21;43.79;37.70;66.77;;
50333;Laerm;36239;48.132;-1.210;2023-02-15T14:27:03;54.18;40.23;75.80;;
50333;Laerm;36239;48.132;-1.210;2023-02-15T14:29:37;51.17;41.38;70.70;;
50333;Laerm;36239;48.132;-1.210;2023-02-15T14:32:26;44.24;39.81;56.40;;
50333;Laerm;36239;48.132;-1.210;2023-02-15T14:34:55;55.00;39.70;78.43;;
50333;Laerm;36239;48.132;-1.210;2023-02-15T14:37:26;43.89;37.88;54.82;;
50333;Laerm;36239;48.132;-1.210;2023-02-15T14:42:42;45.06;38.67;70.71;;
50333;Laerm;36239;48.132;-1.210;2023-02-15T14:45:22;43.78;39.08;54.75;;
50333;Laerm;36239;48.132;-1.210;2023-02-15T14:58:31;48.49;40.03;67.85;;
50333;Laerm;36239;48.132;-1.210;2023-02-15T15:01:03;47.29;38.52;68.61;;
50333;Laerm;36239;48.132;-1.210;2023-02-15T15:03:31;46.75;38.95;71.39;;
50333;Laerm;36239;48.132;-1.210;2023-02-15T15:05:57;48.92;38.52;67.79;;
50333;Laerm;36239;48.132;-1.210;2023-02-15T15:08:28;44.63;38.05;62.43;;
50333;Laerm;36239;48.132;-1.210;2023-02-15T15:10:54;48.90;38.52;70.87;;
50333;Laerm;36239;48.132;-1.210;2023-02-15T15:15:56;43.89;38.52;68.76;;
50333;Laerm;36239;48.132;-1.210;2023-02-15T15:18:43;45.90;38.21;66.96;;
50333;Laerm;36239;48.132;-1.210;2023-02-15T15:21:09;51.31;38.52;73.42;;
50333;Laerm;36239;48.132;-1.210;2023-02-15T15:23:42;44.70;38.21;68.38;;
50333;Laerm;36239;48.132;-1.210;2023-02-15T15:26:22;51.32;38.52;70.46;;
50333;Laerm;36239;48.132;-1.210;2023-02-15T15:48:59;47.42;39.81;64.43;;
50333;Laerm;36239;48.132;-1.210;2023-02-15T15:51:35;46.13;40.23;61.18;;
50333;Laerm;36239;48.132;-1.210;2023-02-15T15:54:04;49.98;40.23;74.94;;
50333;Laerm;36239;48.132;-1.210;2023-02-15T15:56:31;59.72;39.58;83.53;;
50333;Laerm;36239;48.132;-1.210;2023-02-15T15:59:03;45.39;39.34;63.04;;
50333;Laerm;36239;48.132;-1.210;2023-02-15T16:01:31;48.43;38.37;66.45;;
50333;Laerm;36239;48.132;-1.210;2023-02-15T16:04:00;46.37;39.34;60.77;;
50333;Laerm;36239;48.132;-1.210;2023-02-15T16:06:31;44.76;39.46;63.02;;
50333;Laerm;36239;48.132;-1.210;2023-02-15T16:09:08;44.54;39.58;62.61;;
50333;Laerm;36239;48.132;-1.210;2023-02-15T16:11:35;47.14;39.21;67.85;;
50333;Laerm;36239;48.132;-1.210;2023-02-15T16:14:10;45.60;37.88;64.79;;
50333;Laerm;36239;48.132;-1.210;2023-02-15T16:16:37;46.47;37.88;73.39;;
50333;Laerm;36239;48.132;-1.210;2023-02-15T16:19:03;48.16;38.67;60.99;;
50333;Laerm;36239;48.132;-1.210;2023-02-15T16:21:30;47.97;38.81;71.79;;
50333;Laerm;36239;48.132;-1.210;2023-02-15T16:29:14;45.91;37.88;66.82;;
50333;Laerm;36239;48.132;-1.210;2023-02-15T16:31:40;54.21;38.67;84.19;;
50333;Laerm;36239;48.132;-1.210;2023-02-15T16:34:09;57.31;39.34;83.58;;